Krizevci, Croatia
Current Conditions -  °F | °C
As of 3:30 PM on Thursday 27 Nov 2014 (Local Time) from LDZA Reporting Station
Haze Haze  
Wind Chill: 39°   Ceiling: 1500
Heat Index: 39°   Visibility: 3mi
Dew Point: 36°   Wind: 3mph
Humidity: 87%   Direction: 60°ENE
Pressure: 30.03"   Gusts: NA
Location:  46.02°N, 16.55°E
Report Text: LDZA 271330Z 06003KT 020V100 5000 BR OVC015 04/02 Q1017 NOSIG
Loading
Personal Weather Stations






























Interactive Weather Map New forecast layout! Learn more

10-Day Weather Forecast

Advertisements
Track Severe Weather on mobile